createdAt,value
2023-03-08T00:00:11.059Z,9.52
2023-03-08T00:05:13.838Z,11.27
2023-03-08T00:10:18.638Z,9.93
2023-03-08T00:15:21.352Z,6.75
2023-03-08T00:20:30.595Z,7.43
2023-03-08T00:52:57.085Z,9.75
2023-03-08T00:57:59.920Z,9.30
2023-03-08T01:03:02.887Z,9.75
2023-03-08T01:08:07.335Z,10.55
2023-03-08T01:13:10.597Z,10.07
2023-03-08T01:18:14.091Z,9.73
2023-03-08T01:23:18.251Z,9.85
2023-03-08T01:28:21.065Z,8.75
2023-03-08T01:33:25.092Z,8.57
2023-03-08T01:38:29.320Z,9.10
2023-03-08T01:43:34.004Z,9.77
2023-03-08T01:48:41.897Z,8.77
2023-03-08T01:53:50.065Z,9.30
2023-03-08T01:58:53.602Z,9.93
2023-03-08T02:03:56.916Z,8.82
2023-03-08T02:09:05.049Z,7.63
2023-03-08T02:14:08.052Z,6.90
2023-03-08T02:19:18.401Z,3.53
2023-03-08T02:24:25.814Z,5.82
2023-03-08T02:29:28.669Z,5.15
2023-03-08T02:34:31.562Z,5.07
2023-03-08T02:39:36.141Z,4.85
2023-03-08T02:44:38.916Z,5.10
2023-03-08T02:49:41.753Z,5.82
2023-03-08T02:54:47.324Z,6.75
2023-03-08T02:59:50.168Z,6.80
2023-03-08T03:04:53.332Z,8.30
2023-03-08T03:09:57.965Z,7.25
2023-03-08T03:15:02.278Z,9.40
2023-03-08T03:20:06.445Z,9.27
2023-03-08T03:25:10.871Z,8.55
2023-03-08T03:30:14.304Z,7.65
2023-03-08T03:35:17.283Z,8.27
2023-03-08T03:40:21.718Z,7.90
2023-03-08T03:45:30.227Z,5.05
2023-03-08T03:50:33.488Z,9.93
2023-03-08T03:55:43.309Z,10.13
2023-03-08T04:00:46.674Z,11.40
2023-03-08T04:06:06.957Z,9.77
2023-03-08T04:11:14.636Z,11.02
2023-03-08T04:16:19.872Z,12.27
2023-03-08T04:21:24.121Z,12.77
2023-03-08T04:26:29.633Z,11.25
2023-03-08T04:31:34.832Z,10.25
2023-03-08T04:36:41.205Z,14.07
2023-03-08T04:41:46.851Z,13.57
2023-03-08T04:46:58.762Z,14.93
2023-03-08T04:52:15.803Z,18.48
2023-03-08T04:57:21.258Z,12.18
2023-03-08T05:02:26.202Z,16.35
2023-03-08T05:07:29.154Z,17.35
2023-03-08T05:12:37.190Z,17.77
2023-03-08T05:17:40.516Z,17.55
2023-03-08T05:22:57.277Z,18.42
2023-03-08T05:28:05.740Z,18.27
2023-03-08T05:33:08.902Z,19.17
2023-03-08T05:38:12.058Z,19.65
2023-03-08T05:43:16.402Z,20.98
2023-03-08T05:48:19.598Z,20.38
2023-03-08T05:53:23.570Z,20.45
2023-03-08T05:58:27.996Z,23.40
2023-03-08T06:03:30.892Z,20.90
2023-03-08T06:08:33.924Z,21.70
2023-03-08T06:13:38.428Z,23.75
2023-03-08T06:18:42.829Z,24.42
2023-03-08T06:23:48.716Z,25.15
2023-03-08T06:28:52.954Z,24.80
2023-03-08T06:33:56.547Z,26.25
2023-03-08T06:39:02.241Z,27.35
2023-03-08T06:44:06.693Z,25.90
2023-03-08T06:49:09.561Z,27.65
2023-03-08T06:54:17.531Z,27.70
2023-03-08T06:59:23.431Z,27.83
2023-03-08T07:04:26.297Z,28.85
2023-03-08T07:09:29.197Z,28.08
2023-03-08T07:14:33.363Z,5.85
2023-03-08T07:19:36.148Z,36.75
2023-03-08T07:24:39.165Z,33.20
2023-03-08T07:29:43.319Z,27.40
2023-03-08T07:34:46.383Z,22.50
2023-03-08T07:39:49.223Z,24.17
2023-03-08T07:44:53.338Z,25.73
2023-03-08T07:49:56.134Z,27.45
2023-03-08T07:54:59.169Z,28.42
2023-03-08T08:00:07.368Z,27.80
2023-03-08T08:05:15.051Z,27.42
2023-03-08T08:10:18.399Z,28.10
2023-03-08T08:15:25.201Z,27.48
2023-03-08T08:20:28.395Z,27.98
2023-03-08T08:25:31.126Z,27.48
2023-03-08T08:30:35.260Z,27.95
2023-03-08T08:35:43.385Z,27.48
2023-03-08T08:40:46.808Z,27.60
2023-03-08T08:45:55.839Z,25.48
2023-03-08T08:50:59.523Z,26.55
2023-03-08T08:56:23.825Z,24.98
2023-03-08T09:01:32.521Z,25.95
2023-03-08T09:06:35.309Z,28.58
2023-03-08T09:11:53.392Z,24.23
2023-03-08T09:16:58.698Z,25.42
2023-03-08T09:22:01.523Z,24.83
2023-03-08T09:27:06.142Z,22.45
2023-03-08T09:32:10.600Z,25.73
2023-03-08T09:37:13.773Z,26.17
2023-03-08T09:42:23.426Z,24.10
2023-03-08T09:47:48.176Z,23.05
2023-03-08T09:52:57.162Z,23.95
2023-03-08T09:58:03.092Z,25.83
2023-03-08T10:03:25.876Z,24.25
2023-03-08T10:08:36.060Z,22.13
2023-03-08T10:13:40.912Z,21.55
2023-03-08T10:18:50.488Z,19.67
2023-03-08T10:23:59.857Z,16.70
2023-03-08T10:29:02.602Z,16.42
2023-03-08T10:34:13.529Z,11.48
2023-03-08T10:39:17.335Z,10.82
2023-03-08T10:44:33.627Z,10.80
2023-03-08T10:49:37.934Z,12.05
2023-03-08T10:54:40.746Z,10.75
2023-03-08T10:59:51.118Z,11.13
2023-03-08T11:04:58.399Z,10.43
2023-03-08T11:10:19.911Z,9.40
2023-03-08T11:15:22.762Z,8.65
2023-03-08T11:20:32.886Z,6.55
2023-03-08T11:25:43.266Z,4.43
2023-03-08T11:30:56.746Z,5.72
2023-03-08T11:36:07.006Z,4.60
2023-03-08T11:41:24.756Z,3.85
2023-03-08T11:46:33.821Z,4.95
2023-03-08T11:51:45.167Z,5.90
2023-03-08T11:56:54.739Z,3.45
2023-03-08T12:02:03.133Z,2.70
2023-03-08T12:07:14.050Z,3.97
2023-03-08T12:12:22.554Z,2.88
2023-03-08T12:17:29.748Z,2.72
2023-03-08T12:22:46.331Z,2.55
2023-03-08T12:27:54.781Z,3.88
2023-03-08T12:33:00.221Z,3.97
2023-03-08T12:38:07.493Z,5.15
2023-03-08T12:43:13.278Z,4.18
2023-03-08T12:48:24.057Z,3.47
2023-03-08T12:53:34.384Z,2.75
2023-03-08T12:58:41.212Z,3.20
2023-03-08T13:03:44.051Z,3.17
2023-03-08T13:08:54.106Z,3.38
2023-03-08T13:14:01.464Z,3.92
2023-03-08T13:19:19.066Z,3.65
2023-03-08T13:24:36.554Z,3.42
2023-03-08T13:29:40.335Z,2.90
2023-03-08T13:34:45.497Z,2.58
2023-03-08T13:39:54.085Z,2.85
2023-03-08T13:45:09.236Z,2.25
2023-03-08T13:50:19.420Z,2.55
2023-03-08T13:55:30.936Z,2.25
2023-03-08T14:00:35.520Z,2.33
2023-03-08T14:05:43.679Z,2.85
2023-03-08T14:10:51.074Z,3.00
2023-03-08T14:15:56.922Z,2.83
2023-03-08T14:21:06.129Z,2.80
2023-03-08T14:31:39.059Z,3.03
2023-03-08T14:36:49.612Z,3.30
2023-03-08T14:41:52.614Z,4.28
2023-03-08T14:46:59.598Z,3.65
2023-03-08T14:52:02.857Z,3.60
2023-03-08T14:57:18.993Z,3.65
2023-03-08T15:02:23.302Z,3.35
2023-03-08T15:07:35.382Z,2.97
2023-03-08T15:12:38.168Z,3.22
2023-03-08T15:17:42.405Z,3.90
2023-03-08T15:22:48.210Z,3.28
2023-03-08T15:27:51.000Z,4.00
2023-03-08T15:32:57.934Z,4.00
2023-03-08T15:38:02.225Z,3.67
2023-03-08T15:43:05.017Z,3.15
2023-03-08T15:48:13.655Z,4.20
2023-03-08T15:53:29.383Z,4.43
2023-03-08T15:58:37.278Z,4.63
2023-03-08T16:03:41.842Z,4.57
2023-03-08T16:08:44.587Z,4.85
2023-03-08T16:13:49.526Z,5.32
2023-03-08T16:18:53.634Z,5.20
2023-03-08T16:23:57.400Z,5.40
2023-03-08T16:29:00.151Z,5.63
2023-03-08T16:34:05.467Z,5.50
2023-03-08T16:39:09.264Z,5.90
2023-03-08T16:44:20.206Z,7.30
2023-03-08T16:49:28.246Z,8.20
2023-03-08T16:54:31.035Z,8.30
2023-03-08T16:59:33.809Z,9.07
2023-03-08T17:04:37.936Z,7.75
2023-03-08T17:09:40.932Z,8.68
2023-03-08T17:14:44.593Z,9.15
2023-03-08T17:19:52.640Z,8.32
2023-03-08T17:24:55.604Z,9.52
2023-03-08T17:30:00.649Z,9.25
2023-03-08T17:35:05.417Z,10.23
2023-03-08T17:40:10.533Z,9.73
2023-03-08T17:45:14.060Z,10.30
2023-03-08T17:50:18.399Z,10.93
2023-03-08T17:55:21.218Z,9.60
2023-03-08T18:00:24.645Z,11.18
2023-03-08T18:05:29.122Z,10.80
2023-03-08T18:10:31.888Z,10.82
2023-03-08T18:15:34.696Z,11.20
2023-03-08T18:20:38.973Z,12.10
2023-03-08T18:25:41.839Z,12.00
2023-03-08T18:30:44.680Z,11.70
2023-03-08T18:35:56.889Z,12.68
2023-03-08T18:40:59.652Z,12.35
2023-03-08T18:46:02.410Z,12.05
2023-03-08T18:51:07.111Z,12.73
2023-03-08T18:56:10.533Z,12.88
2023-03-08T19:01:15.573Z,14.85
2023-03-08T19:06:19.779Z,13.70
2023-03-08T19:11:24.549Z,17.25
2023-03-08T19:16:29.766Z,17.52
2023-03-08T19:21:35.381Z,16.80
2023-03-08T19:26:40.967Z,16.42
2023-03-08T19:31:45.287Z,17.17
2023-03-08T19:36:49.888Z,18.17
2023-03-08T19:41:54.842Z,17.63
2023-03-08T19:46:58.239Z,17.42
2023-03-08T19:52:05.313Z,17.85
2023-03-08T19:57:08.242Z,17.30
2023-03-08T20:02:13.690Z,18.77
2023-03-08T20:07:21.196Z,17.85
2023-03-08T20:12:23.983Z,19.10
2023-03-08T20:17:27.639Z,19.15
2023-03-08T20:22:31.777Z,18.08
2023-03-08T20:27:35.412Z,20.45
2023-03-08T20:32:39.508Z,20.98
2023-03-08T20:37:43.786Z,19.00
2023-03-08T20:42:46.559Z,19.85
2023-03-08T20:47:49.315Z,18.45
2023-03-08T20:52:53.755Z,17.75
2023-03-08T20:57:56.526Z,18.45
2023-03-08T21:02:59.545Z,18.58
2023-03-08T21:08:04.639Z,18.08
2023-03-08T21:13:07.751Z,18.40
2023-03-08T21:18:10.541Z,19.60
2023-03-08T21:23:16.430Z,18.77
2023-03-08T21:28:19.433Z,18.08
2023-03-08T21:33:22.217Z,18.38
2023-03-08T21:38:26.348Z,18.52
2023-03-08T21:43:29.096Z,18.10
2023-03-08T21:48:32.090Z,18.90
2023-03-08T21:53:36.457Z,18.25
2023-03-08T21:58:39.670Z,19.58
2023-03-08T22:03:42.423Z,18.13
2023-03-08T22:08:47.073Z,20.65
2023-03-08T22:13:51.153Z,18.88
2023-03-08T22:18:54.975Z,19.65
2023-03-08T22:24:00.832Z,19.10
2023-03-08T22:29:03.805Z,19.80
2023-03-08T22:34:07.720Z,19.98
2023-03-08T22:39:12.977Z,19.95
2023-03-08T22:44:16.959Z,21.77
2023-03-08T22:49:19.703Z,20.60
2023-03-08T22:54:24.743Z,21.17
2023-03-08T22:59:27.578Z,21.67
2023-03-08T23:04:30.375Z,22.13
2023-03-08T23:09:35.497Z,24.20
2023-03-08T23:14:38.239Z,23.10
2023-03-08T23:19:44.971Z,21.70
2023-03-08T23:24:49.279Z,22.17
2023-03-08T23:29:52.926Z,22.20
2023-03-08T23:48:12.855Z,21.70
2023-03-08T23:53:15.626Z,21.30
2023-03-08T23:58:18.452Z,21.42
